createdAt,value
2023-05-14T00:06:34.862Z,4.03
2023-05-14T00:16:56.574Z,4.93
2023-05-14T00:27:17.692Z,4.68
2023-05-14T00:37:39.969Z,3.53
2023-05-14T00:48:01.406Z,4.20
2023-05-14T00:58:23.100Z,3.22
2023-05-14T01:08:44.381Z,5.20
2023-05-14T01:19:06.360Z,3.92
2023-05-14T01:29:29.104Z,3.53
2023-05-14T01:39:52.295Z,3.70
2023-05-14T01:50:14.543Z,4.72
2023-05-14T02:00:35.632Z,5.13
2023-05-14T02:10:57.356Z,4.60
2023-05-14T02:21:19.180Z,5.93
2023-05-14T02:31:40.785Z,11.95
2023-05-14T02:42:02.167Z,9.85
2023-05-14T02:52:23.609Z,10.00
2023-05-14T03:02:45.606Z,8.88
2023-05-14T03:13:07.338Z,8.35
2023-05-14T03:23:28.809Z,7.25
2023-05-14T03:33:50.223Z,6.40
2023-05-14T03:44:11.574Z,5.20
2023-05-14T03:54:32.804Z,6.05
2023-05-14T04:04:54.805Z,7.55
2023-05-14T04:15:16.349Z,6.53
2023-05-14T04:25:38.079Z,6.25
2023-05-14T04:35:59.660Z,5.50
2023-05-14T04:46:20.800Z,5.80
2023-05-14T04:56:42.285Z,6.65
2023-05-14T05:07:03.658Z,5.20
2023-05-14T05:17:25.459Z,5.97
2023-05-14T05:27:47.065Z,6.18
2023-05-14T05:38:08.076Z,8.57
2023-05-14T05:48:29.258Z,7.65
2023-05-14T05:58:50.854Z,8.55
2023-05-14T06:09:11.938Z,9.63
2023-05-14T06:19:33.019Z,7.28
2023-05-14T06:29:56.325Z,6.43
2023-05-14T06:40:19.131Z,6.00
2023-05-14T06:50:41.557Z,6.18
2023-05-14T07:01:02.930Z,6.30
2023-05-14T07:11:24.431Z,5.20
2023-05-14T07:21:45.571Z,7.15
2023-05-14T07:32:06.941Z,5.35
2023-05-14T07:42:35.876Z,5.65
2023-05-14T07:52:58.632Z,8.88
2023-05-14T08:03:19.746Z,5.05
2023-05-14T08:13:41.770Z,5.78
2023-05-14T08:24:02.961Z,8.57
2023-05-14T08:34:24.373Z,8.65
2023-05-14T08:44:50.324Z,7.25
2023-05-14T08:55:12.865Z,8.10
2023-05-14T09:05:34.114Z,7.28
2023-05-14T09:15:55.545Z,5.85
2023-05-14T09:26:18.904Z,7.00
2023-05-14T09:36:40.305Z,6.22
2023-05-14T09:47:01.428Z,5.05
2023-05-14T09:57:22.814Z,6.03
2023-05-14T10:07:48.114Z,14.07
2023-05-14T10:18:15.263Z,12.77
2023-05-14T10:28:37.583Z,9.82
2023-05-14T10:38:58.861Z,11.80
2023-05-14T10:49:28.256Z,7.93
2023-05-14T10:59:58.939Z,4.93
2023-05-14T11:10:22.254Z,8.27
2023-05-14T11:20:44.036Z,5.93
2023-05-14T11:31:05.898Z,6.03
2023-05-14T11:41:28.276Z,4.97
2023-05-14T11:51:49.230Z,4.60
2023-05-14T12:02:12.497Z,4.50
2023-05-14T12:12:37.444Z,4.70
2023-05-14T12:22:59.279Z,4.53
2023-05-14T12:33:23.115Z,4.50
2023-05-14T12:43:44.926Z,3.55
2023-05-14T12:54:06.516Z,4.10
2023-05-14T13:04:27.877Z,6.32
2023-05-14T13:14:49.469Z,4.57
2023-05-14T13:25:11.074Z,4.72
2023-05-14T13:35:32.154Z,5.28
2023-05-14T13:45:53.268Z,6.72
2023-05-14T13:56:14.744Z,5.80
2023-05-14T14:06:36.206Z,5.18
2023-05-14T14:16:57.612Z,6.03
2023-05-14T14:27:19.664Z,3.95
2023-05-14T14:37:45.771Z,4.05
2023-05-14T14:48:26.698Z,4.55
2023-05-14T14:58:47.965Z,4.03
2023-05-14T15:09:09.456Z,4.43
2023-05-14T15:19:32.637Z,4.85
2023-05-14T15:29:53.988Z,3.80
2023-05-14T15:40:15.653Z,4.28
2023-05-14T15:50:38.730Z,3.58
2023-05-14T16:00:59.880Z,3.25
2023-05-14T16:11:21.717Z,3.20
2023-05-14T16:21:44.579Z,2.92
2023-05-14T16:32:05.926Z,2.97
2023-05-14T16:42:27.743Z,3.60
2023-05-14T16:52:48.922Z,3.92
2023-05-14T17:03:10.056Z,3.50
2023-05-14T17:13:32.024Z,3.13
2023-05-14T17:23:52.617Z,3.35
2023-05-14T17:34:13.886Z,2.85
2023-05-14T17:44:36.550Z,3.10
2023-05-14T17:54:58.009Z,2.30
2023-05-14T18:05:20.678Z,2.08
2023-05-14T18:15:42.187Z,2.78
2023-05-14T18:26:03.474Z,3.10
2023-05-14T18:36:24.557Z,3.17
2023-05-14T18:46:46.160Z,2.70
2023-05-14T18:57:07.542Z,2.60
2023-05-14T19:07:28.512Z,2.13
2023-05-14T19:17:50.108Z,3.25
2023-05-14T19:28:11.668Z,2.50
2023-05-14T19:38:32.764Z,2.05
2023-05-14T19:48:53.673Z,2.42
2023-05-14T19:59:14.713Z,4.05
2023-05-14T20:09:36.165Z,3.30
2023-05-14T20:19:58.450Z,3.05
2023-05-14T20:30:20.777Z,2.45
2023-05-14T20:40:42.243Z,2.78
2023-05-14T20:51:06.611Z,2.42
2023-05-14T21:01:27.563Z,4.15
2023-05-14T21:11:49.070Z,2.85
2023-05-14T21:22:09.938Z,2.80
2023-05-14T21:32:31.160Z,2.92
2023-05-14T21:42:52.490Z,3.40
2023-05-14T21:53:13.912Z,3.35
2023-05-14T22:03:36.191Z,3.10
2023-05-14T22:13:57.445Z,2.90
2023-05-14T22:24:18.601Z,2.70
2023-05-14T22:34:39.843Z,2.92
2023-05-14T22:45:01.100Z,3.35
2023-05-14T22:55:22.440Z,3.75
2023-05-14T23:05:43.590Z,3.72
2023-05-14T23:16:06.265Z,3.78
2023-05-14T23:26:27.429Z,2.67
2023-05-14T23:36:48.715Z,3.05
2023-05-14T23:47:09.843Z,3.03
2023-05-14T23:57:31.475Z,3.38
